Time;durP1;ratioP1;P1;durP2;ratioP2;P2;SDS_P1;SDS_P2;PMS_P1;PMS_P2;Temp;Humidity;BMP_temperature;BMP_pressure;BME280_temperature;BME280_humidity;BME280_pressure;Samples;Min_cycle;Max_cycle;Signal;HPM_P1;HPM_P2
2023/04/29 00:04:04;;;;;;;7.40;2.60;;;;;;;12.71;66.51;99585.41;10514509;28;20393;-61
2023/04/29 00:09:06;;;;;;;6.05;2.88;;;;;;;12.66;66.67;99585.75;10512413;28;20040;-62
2023/04/29 00:14:08;;;;;;;5.65;3.15;;;;;;;12.64;66.81;99581.59;10509824;28;20059;-61
2023/04/29 00:19:10;;;;;;;5.10;2.97;;;;;;;12.64;66.55;99574.53;10512514;28;20050;-61
2023/04/29 00:24:11;;;;;;;4.75;2.10;;;;;;;12.65;66.16;99570.97;10509205;28;20048;-61
2023/04/29 00:29:13;;;;;;;4.47;1.92;;;;;;;12.67;65.93;99570.84;10509520;28;20046;-62
2023/04/29 00:34:15;;;;;;;4.05;2.38;;;;;;;12.72;65.84;99582.69;10493230;28;20169;-61
2023/04/29 00:39:17;;;;;;;6.88;2.20;;;;;;;12.68;65.88;99581.22;10477968;28;20047;-61
2023/04/29 00:44:19;;;;;;;3.75;2.42;;;;;;;12.68;66.04;99591.72;10491812;28;20043;-62
2023/04/29 00:49:21;;;;;;;5.38;3.10;;;;;;;12.71;66.39;99599.38;10512392;28;20254;-62
2023/04/29 00:54:23;;;;;;;3.85;2.88;;;;;;;12.71;66.63;99598.53;10511708;28;20147;-61
2023/04/29 00:59:30;;;;;;;5.75;3.58;;;;;;;12.80;66.61;99595.25;10511757;28;20046;-62
2023/04/29 01:04:32;;;;;;;6.05;3.97;;;;;;;12.79;66.77;99590.94;10510108;28;20453;-61
2023/04/29 01:09:52;;;;;;;5.28;3.90;;;;;;;12.76;66.98;99599.88;10492834;28;20480;-61
2023/04/29 01:15:21;;;;;;;5.40;3.83;;;;;;;12.68;67.17;99596.97;10492967;28;20184;-62
2023/04/29 01:20:25;;;;;;;4.78;3.70;;;;;;;12.72;66.93;99601.03;10485488;28;20053;-61
2023/04/29 01:25:27;;;;;;;6.18;4.22;;;;;;;12.71;67.02;99601.16;10477839;28;20040;-61
2023/04/29 01:30:54;;;;;;;7.47;4.22;;;;;;;12.71;67.32;99607.25;10522473;28;20040;-61
2023/04/29 01:36:24;;;;;;;10.88;6.57;;;;;;;12.62;66.68;99607.91;10488779;28;20401;-61
2023/04/29 01:41:43;;;;;;;9.00;7.67;;;;;;;12.56;67.18;99621.47;10489439;28;20372;-61
2023/04/29 01:46:58;;;;;;;12.47;9.00;;;;;;;12.42;66.96;99613.78;10473921;28;20291;-62
2023/04/29 01:52:06;;;;;;;13.10;9.02;;;;;;;12.36;66.92;99613.38;10489376;28;20113;-61
2023/04/29 01:57:09;;;;;;;10.95;9.38;;;;;;;12.45;66.33;99600.47;10490230;28;20040;-62
2023/04/29 02:02:24;;;;;;;10.88;9.27;;;;;;;12.43;66.15;99602.34;10492959;28;20048;-61
2023/04/29 02:07:34;;;;;;;;;;;;;;;12.10;66.94;99609.97;10497976;28;20063;-62
2023/04/29 02:12:36;;;;;;;10.55;9.05;;;;;;;12.36;65.99;99613.38;10515890;28;20360;-61
2023/04/29 02:17:38;;;;;;;11.15;8.93;;;;;;;12.38;65.57;99614.09;10528635;28;20496;-61
2023/04/29 02:22:40;;;;;;;12.35;9.70;;;;;;;12.40;65.37;99622.69;10515493;28;20451;-61
2023/04/29 02:27:41;;;;;;;11.27;9.55;;;;;;;12.45;65.14;99626.69;10492222;28;20054;-62
2023/04/29 02:32:43;;;;;;;13.02;9.70;;;;;;;12.55;64.57;99632.94;10513728;28;20126;-61
2023/04/29 02:37:48;;;;;;;13.63;9.70;;;;;;;12.62;64.26;99636.78;10496774;28;20508;-62
2023/04/29 02:42:50;;;;;;;10.85;9.38;;;;;;;12.68;64.11;99640.75;10514510;28;20059;-62
2023/04/29 02:47:51;;;;;;;12.40;10.50;;;;;;;12.61;64.98;99647.38;10516643;28;20739;-61
2023/04/29 02:52:54;;;;;;;15.82;12.88;;;;;;;12.24;64.02;99650.94;10518327;28;20082;-61
2023/04/29 02:57:56;;;;;;;18.35;13.70;;;;;;;12.07;64.17;99646.88;10504892;28;20139;-61
2023/04/29 03:02:57;;;;;;;19.58;14.73;;;;;;;11.94;64.08;99652.16;10521131;28;20036;-61
2023/04/29 03:08:00;;;;;;;20.88;15.52;;;;;;;11.94;63.45;99651.31;10497650;28;20048;-61
2023/04/29 03:13:02;;;;;;;18.90;13.68;;;;;;;11.81;63.43;99655.72;10496530;28;20040;-61
2023/04/29 03:18:06;;;;;;;17.60;13.73;;;;;;;11.75;63.55;99659.59;10495792;28;20048;-62
2023/04/29 03:23:08;;;;;;;17.83;13.27;;;;;;;11.76;63.24;99673.56;10528052;28;20519;-61
2023/04/29 03:28:10;;;;;;;16.80;12.98;;;;;;;11.75;62.86;99679.72;10502365;28;20135;-61
2023/04/29 03:33:12;;;;;;;17.35;12.82;;;;;;;11.74;62.33;99672.81;10515117;28;20063;-61
2023/04/29 03:38:14;;;;;;;16.40;11.52;;;;;;;11.69;62.76;99677.53;10526469;28;20048;-61
2023/04/29 03:43:17;;;;;;;17.52;11.05;;;;;;;11.69;62.47;99672.28;10506366;28;20063;-61
2023/04/29 03:48:20;;;;;;;13.05;10.75;;;;;;;11.76;62.13;99682.25;10487278;28;20452;-62
2023/04/29 03:53:22;;;;;;;14.82;10.32;;;;;;;11.74;61.62;99680.69;10492562;28;20063;-61
2023/04/29 03:58:24;;;;;;;17.13;9.88;;;;;;;11.64;61.43;99690.94;10490460;28;20504;-62
2023/04/29 04:03:27;;;;;;;12.05;9.07;;;;;;;11.61;61.28;99685.91;10512174;28;20039;-62
2023/04/29 04:08:31;;;;;;;14.95;9.57;;;;;;;11.72;61.36;99690.44;10483907;28;20044;-61
2023/04/29 04:13:52;;;;;;;12.00;8.20;;;;;;;11.65;60.56;99694.38;10493620;28;20044;-61
2023/04/29 04:18:54;;;;;;;12.80;9.40;;;;;;;11.51;60.56;99699.72;10486318;28;20476;-61
2023/04/29 04:23:56;;;;;;;12.07;8.85;;;;;;;11.59;61.08;99702.66;10509303;28;20544;-61
2023/04/29 04:28:59;;;;;;;14.73;9.50;;;;;;;11.58;60.64;99703.63;10481893;28;20040;-61
2023/04/29 04:34:13;;;;;;;12.18;8.77;;;;;;;11.40;60.78;99707.47;10487202;28;20509;-61
2023/04/29 04:39:15;;;;;;;14.57;8.43;;;;;;;11.30;60.76;99722.94;10485760;28;20055;-61
2023/04/29 04:44:18;;;;;;;10.80;7.93;;;;;;;11.29;61.02;99731.75;10528108;27;20101;-62
2023/04/29 04:49:33;;;;;;;11.82;7.80;;;;;;;11.36;61.03;99746.09;10528179;28;20051;-62
2023/04/29 04:54:35;;;;;;;12.25;7.30;;;;;;;11.36;60.94;99742.66;10507608;28;20645;-62
2023/04/29 04:59:45;;;;;;;11.65;7.30;;;;;;;11.39;60.62;99748.53;10487939;28;20117;-61
2023/04/29 05:04:48;;;;;;;12.15;7.18;;;;;;;11.32;60.87;99748.06;10487163;28;20044;-62
2023/04/29 05:09:51;;;;;;;11.35;7.10;;;;;;;11.32;60.71;99760.31;10491468;28;20044;-62
2023/04/29 05:14:56;;;;;;;11.00;7.30;;;;;;;11.40;60.78;99767.69;10491756;28;20598;-62
2023/04/29 05:20:00;;;;;;;13.75;8.85;;;;;;;11.38;60.39;99770.41;10476866;28;20050;-62
2023/04/29 05:25:03;;;;;;;12.02;8.10;;;;;;;11.30;60.54;99778.75;10509196;28;20051;-62
2023/04/29 05:30:08;;;;;;;12.55;8.68;;;;;;;11.46;60.46;99781.19;10475853;28;20055;-62
2023/04/29 05:35:11;;;;;;;11.73;9.13;;;;;;;11.44;60.66;99783.09;10490555;28;20109;-62
2023/04/29 05:40:13;;;;;;;14.27;9.43;;;;;;;11.63;60.27;99787.94;10491841;28;20036;-62
2023/04/29 05:45:15;;;;;;;13.45;9.32;;;;;;;11.67;60.29;99790.28;10482803;28;20093;-64
2023/04/29 05:50:17;;;;;;;13.75;8.90;;;;;;;11.73;60.41;99804.75;10496533;28;20075;-64
2023/04/29 05:55:19;;;;;;;12.98;9.25;;;;;;;11.79;60.33;99814.81;10471331;28;20040;-64
2023/04/29 06:00:23;;;;;;;17.70;10.43;;;;;;;11.84;60.15;99816.22;10482971;28;20056;-65
2023/04/29 06:05:31;;;;;;;13.40;9.70;;;;;;;11.63;60.99;99814.16;10521633;28;20044;-64
2023/04/29 06:10:52;;;;;;;14.80;10.00;;;;;;;11.78;60.90;99824.47;10507919;28;20044;-65
2023/04/29 06:15:54;;;;;;;13.35;9.32;;;;;;;11.96;60.46;99832.88;10488854;28;20477;-65
2023/04/29 06:20:56;;;;;;;14.95;9.30;;;;;;;12.03;60.55;99840.22;10517139;28;20953;-65
2023/04/29 06:25:58;;;;;;;15.23;9.05;;;;;;;12.05;60.17;99840.13;10504803;28;20126;-64
2023/04/29 06:31:01;;;;;;;16.77;10.30;;;;;;;12.14;59.82;99855.25;10484076;28;20044;-65
2023/04/29 06:36:04;;;;;;;13.57;10.30;;;;;;;12.08;60.10;99863.50;10511546;28;20083;-64
2023/04/29 06:41:39;;;;;;;16.50;10.57;;;;;;;12.15;60.20;99857.75;10480092;28;20113;-65
2023/04/29 06:47:07;;;;;;;12.95;10.48;;;;;;;12.30;59.91;99862.94;10501439;28;20218;-65
2023/04/29 06:52:38;;;;;;;17.58;11.85;;;;;;;12.26;59.97;99875.38;10487687;28;20078;-64
2023/04/29 06:57:40;;;;;;;18.60;11.77;;;;;;;12.24;60.41;99882.50;10516796;28;20042;-65
2023/04/29 07:02:42;;;;;;;13.85;10.90;;;;;;;12.21;60.80;99882.75;10496699;28;20385;-64
2023/04/29 07:07:45;;;;;;;15.75;11.10;;;;;;;12.13;61.08;99887.63;10492788;28;20044;-64
2023/04/29 07:12:46;;;;;;;16.02;11.40;;;;;;;12.01;61.39;99894.53;10515393;28;20067;-64
2023/04/29 07:17:49;;;;;;;16.17;10.45;;;;;;;12.06;61.29;99897.69;10497150;28;20044;-65
2023/04/29 07:22:51;;;;;;;13.90;10.23;;;;;;;12.18;61.31;99911.75;10515640;28;20051;-64
2023/04/29 07:27:53;;;;;;;16.35;10.95;;;;;;;12.15;60.75;99904.09;10530233;28;20044;-65
2023/04/29 07:32:55;;;;;;;15.80;10.55;;;;;;;12.54;60.01;99914.56;10497601;28;20048;-65
2023/04/29 07:37:58;;;;;;;14.82;10.43;;;;;;;12.83;58.99;99916.03;10494996;28;20056;-64
2023/04/29 07:43:03;;;;;;;12.60;9.40;;;;;;;12.88;58.30;99911.28;10496932;28;20101;-64
2023/04/29 07:48:05;;;;;;;15.50;9.80;;;;;;;13.03;57.77;99919.06;10515501;28;20047;-63
2023/04/29 07:53:07;;;;;;;13.15;9.75;;;;;;;13.28;57.14;99926.88;10495769;28;20068;-64
2023/04/29 07:58:10;;;;;;;14.77;9.73;;;;;;;13.50;56.61;99932.31;10496194;28;20048;-64
2023/04/29 08:03:12;;;;;;;12.18;8.35;;;;;;;13.71;55.89;99931.63;10495613;28;20044;-64
2023/04/29 08:08:14;;;;;;;11.93;9.07;;;;;;;13.86;55.87;99934.91;10495688;28;20436;-64
2023/04/29 08:13:17;;;;;;;13.35;9.10;;;;;;;13.89;55.72;99941.75;10479392;28;20815;-63
2023/04/29 08:18:20;;;;;;;12.07;8.32;;;;;;;13.89;55.08;99950.47;10494507;28;20093;-64
2023/04/29 08:23:22;;;;;;;10.00;7.35;;;;;;;13.37;55.85;99970.91;10513286;28;20044;-64
2023/04/29 08:28:24;;;;;;;11.07;7.05;;;;;;;13.55;55.34;99974.88;10512566;28;20044;-64
2023/04/29 08:33:25;;;;;;;8.75;6.18;;;;;;;13.70;54.97;99977.25;10512984;28;20040;-63
2023/04/29 08:38:28;;;;;;;8.07;5.28;;;;;;;13.59;54.47;99984.22;10508222;28;20126;-64
2023/04/29 08:43:30;;;;;;;7.75;6.53;;;;;;;13.63;54.07;99988.31;10512450;28;20044;-64
2023/04/29 08:48:34;;;;;;;7.93;5.88;;;;;;;13.63;53.78;100001.47;10512103;28;20155;-64
2023/04/29 08:53:36;;;;;;;7.70;6.10;;;;;;;13.62;54.03;99990.09;10511047;28;20050;-64
2023/04/29 08:58:41;;;;;;;7.70;5.95;;;;;;;13.48;53.71;99995.50;10508124;28;20040;-65
2023/04/29 09:03:49;;;;;;;7.00;5.78;;;;;;;13.51;53.33;100002.31;10493510;28;20310;-66
2023/04/29 09:08:51;;;;;;;11.45;6.13;;;;;;;13.45;54.32;100008.88;10508345;28;20044;-66
2023/04/29 09:14:03;;;;;;;9.32;6.05;;;;;;;13.56;53.88;100010.72;10507676;28;20044;-66
2023/04/29 09:19:05;;;;;;;8.05;5.70;;;;;;;13.63;53.58;100012.81;10509960;28;20443;-65
2023/04/29 09:24:06;;;;;;;7.68;5.40;;;;;;;13.39;54.31;100027.63;10501994;28;20056;-63
2023/04/29 09:29:13;;;;;;;9.55;5.35;;;;;;;13.11;54.63;100042.78;10509946;28;20055;-63
2023/04/29 09:34:15;;;;;;;7.50;6.13;;;;;;;13.20;54.89;100040.38;10508556;28;20066;-63
2023/04/29 09:39:19;;;;;;;8.40;6.38;;;;;;;13.18;54.92;100042.25;10497444;28;20337;-63
2023/04/29 09:44:34;;;;;;;8.98;6.90;;;;;;;13.46;54.31;100046.47;10508617;28;20151;-63
2023/04/29 09:49:39;;;;;;;10.43;6.63;;;;;;;13.84;54.20;100031.44;10515703;28;20416;-62
2023/04/29 09:54:43;;;;;;;7.93;5.95;;;;;;;14.65;52.86;100034.28;10514290;28;20155;-62
2023/04/29 09:59:44;;;;;;;6.07;4.90;;;;;;;15.51;51.00;100030.28;10514554;28;20040;-63
2023/04/29 10:04:53;;;;;;;5.68;4.32;;;;;;;16.12;49.11;100027.06;10512032;28;20044;-63
2023/04/29 10:09:56;;;;;;;8.18;4.43;;;;;;;16.68;47.90;100030.34;10514051;28;20048;-63
2023/04/29 10:15:21;;;;;;;5.35;4.15;;;;;;;16.64;47.56;100039.47;10509435;28;20511;-63
2023/04/29 10:20:24;;;;;;;6.38;4.35;;;;;;;16.61;47.22;100045.03;10516230;28;20125;-62
2023/04/29 10:25:28;;;;;;;4.80;3.92;;;;;;;16.61;47.01;100031.81;10498315;28;20135;-63
2023/04/29 10:30:30;;;;;;;6.03;4.28;;;;;;;16.45;47.33;100034.03;10516330;28;20509;-63
2023/04/29 10:35:33;;;;;;;4.35;3.80;;;;;;;16.41;46.60;100038.69;10515476;28;20052;-63
2023/04/29 10:40:41;;;;;;;5.20;3.92;;;;;;;16.15;47.29;100035.56;10516465;28;20828;-63
2023/04/29 10:45:43;;;;;;;5.85;4.35;;;;;;;16.08;47.04;100046.75;10516374;28;20463;-63
2023/04/29 10:50:47;;;;;;;5.63;4.60;;;;;;;16.11;46.30;100044.69;10516002;28;20464;-63
2023/04/29 10:55:57;;;;;;;5.03;3.85;;;;;;;16.61;45.42;100047.66;10516195;28;20055;-63
2023/04/29 11:00:58;;;;;;;6.00;3.65;;;;;;;16.96;45.81;100051.66;10515844;28;20051;-63
2023/04/29 11:06:08;;;;;;;5.50;3.65;;;;;;;16.97;44.25;100048.06;10515969;28;20044;-63
2023/04/29 11:11:12;;;;;;;5.03;4.05;;;;;;;16.97;45.04;100041.94;10515894;28;20324;-63
2023/04/29 11:16:14;;;;;;;4.78;4.00;;;;;;;17.08;45.04;100044.50;10520713;28;20131;-63
2023/04/29 11:21:16;;;;;;;5.57;3.80;;;;;;;17.15;45.19;100045.66;10523083;28;20528;-63
2023/04/29 11:26:18;;;;;;;7.70;4.45;;;;;;;16.96;45.43;100054.31;10522689;28;20076;-63
2023/04/29 11:31:20;;;;;;;6.25;4.40;;;;;;;16.94;45.49;100063.31;10522497;28;20137;-64
2023/04/29 11:36:22;;;;;;;5.47;4.43;;;;;;;17.17;44.84;100051.66;10522173;28;20513;-63
2023/04/29 11:41:25;;;;;;;5.05;4.40;;;;;;;17.18;45.12;100063.09;10522605;28;20044;-63
2023/04/29 11:46:30;;;;;;;6.45;4.82;;;;;;;17.00;44.95;100065.47;10521863;28;20508;-63
2023/04/29 11:51:32;;;;;;;7.25;5.05;;;;;;;17.14;45.02;100073.06;10521740;28;20044;-63
2023/04/29 11:56:36;;;;;;;7.10;5.45;;;;;;;16.90;44.78;100073.31;10521413;28;20048;-63
2023/04/29 12:01:40;;;;;;;6.88;6.10;;;;;;;16.94;45.28;100080.03;10521459;28;20101;-63
2023/04/29 12:06:42;;;;;;;7.57;6.20;;;;;;;16.61;45.59;100076.72;10521255;28;20048;-63
2023/04/29 12:11:48;;;;;;;7.80;6.70;;;;;;;16.89;45.09;100070.81;10502842;28;20492;-63
2023/04/29 12:16:51;;;;;;;9.15;7.80;;;;;;;17.18;45.55;100074.47;10521083;28;20556;-64
2023/04/29 12:21:52;;;;;;;9.88;7.70;;;;;;;17.63;44.58;100073.22;10520717;28;20500;-63
2023/04/29 12:26:54;;;;;;;8.80;7.47;;;;;;;17.58;44.67;100075.44;10519838;28;20139;-63
2023/04/29 12:31:56;;;;;;;10.48;8.25;;;;;;;17.22;45.00;100075.88;10485695;28;20055;-64
2023/04/29 12:36:59;;;;;;;9.35;8.23;;;;;;;17.10;44.40;100078.75;10519691;28;20052;-63
2023/04/29 12:42:01;;;;;;;8.90;7.45;;;;;;;16.99;44.33;100082.28;10520223;28;20130;-64
2023/04/29 12:47:10;;;;;;;8.60;7.43;;;;;;;17.13;44.47;100074.03;10519469;28;20147;-63
2023/04/29 12:52:13;;;;;;;11.25;7.78;;;;;;;16.81;44.47;100079.34;10519018;28;20044;-64
2023/04/29 12:57:15;;;;;;;9.80;7.85;;;;;;;16.35;46.00;100083.22;10519228;28;20142;-64
2023/04/29 13:02:17;;;;;;;9.77;7.40;;;;;;;16.09;46.12;100099.38;10519019;28;20059;-64
2023/04/29 13:07:19;;;;;;;11.40;7.50;;;;;;;16.23;46.18;100093.81;10518928;28;20146;-63
2023/04/29 13:12:21;;;;;;;11.65;8.00;;;;;;;16.11;46.83;100097.44;10519092;28;20360;-64
2023/04/29 13:17:23;;;;;;;11.27;8.30;;;;;;;16.41;46.25;100109.97;10518907;28;20056;-63
2023/04/29 13:22:25;;;;;;;11.70;8.50;;;;;;;16.54;46.39;100096.66;10500431;28;20036;-63
2023/04/29 13:27:27;;;;;;;10.27;8.23;;;;;;;16.79;45.63;100101.59;10517723;28;20147;-63
2023/04/29 13:32:28;;;;;;;11.38;8.90;;;;;;;16.68;45.89;100106.91;10500401;28;20040;-64
2023/04/29 13:37:47;;;;;;;10.48;8.60;;;;;;;16.49;45.97;100104.13;10516936;28;20733;-64
2023/04/29 13:42:49;;;;;;;12.15;8.90;;;;;;;16.32;46.24;100112.53;10516050;28;20040;-64
2023/04/29 13:48:04;;;;;;;11.10;7.60;;;;;;;16.25;46.30;100117.44;10517466;28;20044;-64
2023/04/29 13:53:26;;;;;;;13.68;8.93;;;;;;;15.90;47.36;100132.59;10517307;28;20056;-64
2023/04/29 13:58:31;;;;;;;34.72;10.40;;;;;;;16.13;47.28;100126.34;10532605;28;20047;-63
2023/04/29 14:03:52;;;;;;;15.05;10.80;;;;;;;16.21;47.20;100127.41;10517191;28;20451;-64
2023/04/29 14:08:54;;;;;;;17.65;11.95;;;;;;;16.50;46.84;100137.47;10481911;28;20460;-63
2023/04/29 14:13:56;;;;;;;15.05;12.02;;;;;;;16.47;47.31;100132.44;10517022;28;20834;-64
2023/04/29 14:18:58;;;;;;;15.82;12.13;;;;;;;16.34;46.72;100137.00;10498745;28;20084;-64
2023/04/29 14:24:04;;;;;;;16.42;12.93;;;;;;;16.35;47.03;100131.59;10516717;28;20044;-63
2023/04/29 14:29:06;;;;;;;18.20;11.80;;;;;;;16.08;47.02;100142.53;10516196;28;20479;-64
2023/04/29 14:34:08;;;;;;;14.43;11.20;;;;;;;15.95;47.81;100144.47;10516406;28;20043;-63
2023/04/29 14:39:10;;;;;;;16.08;11.05;;;;;;;15.91;47.36;100144.84;10516106;28;20056;-63
2023/04/29 14:44:11;;;;;;;14.27;10.57;;;;;;;15.66;48.42;100160.88;10498544;28;20040;-64
2023/04/29 14:49:13;;;;;;;13.60;10.00;;;;;;;15.54;48.83;100172.34;10502221;28;20415;-64
2023/04/29 14:54:15;;;;;;;12.95;8.70;;;;;;;15.80;48.09;100166.75;10523697;28;20423;-64
2023/04/29 14:59:17;;;;;;;13.43;7.75;;;;;;;15.60;48.77;100174.53;10524348;28;20147;-64
2023/04/29 15:04:19;;;;;;;10.07;7.72;;;;;;;15.62;48.68;100180.53;10523653;28;20044;-64
2023/04/29 15:09:22;;;;;;;9.55;7.55;;;;;;;15.74;48.61;100188.34;10505268;28;20661;-63
2023/04/29 15:14:24;;;;;;;11.13;8.25;;;;;;;15.37;48.59;100186.78;10538817;28;20051;-64
2023/04/29 15:19:25;;;;;;;8.60;7.05;;;;;;;15.52;48.81;100184.81;10504828;28;20102;-64
2023/04/29 15:24:27;;;;;;;10.30;6.85;;;;;;;15.73;48.11;100184.03;10522680;28;20040;-64
2023/04/29 15:29:31;;;;;;;8.43;6.30;;;;;;;15.80;48.58;100192.28;10504087;28;20159;-64
2023/04/29 15:34:33;;;;;;;10.30;7.90;;;;;;;15.84;48.22;100189.31;10522694;28;20127;-64
2023/04/29 15:39:35;;;;;;;9.93;7.50;;;;;;;15.70;48.47;100194.81;10522027;28;20066;-63
2023/04/29 15:44:36;;;;;;;9.65;6.95;;;;;;;15.64;48.13;100203.19;10522063;28;20407;-64
2023/04/29 15:49:40;;;;;;;9.43;6.30;;;;;;;15.52;49.07;100204.13;10503662;28;20046;-63
2023/04/29 15:54:41;;;;;;;9.50;7.28;;;;;;;15.45;49.07;100213.41;10521573;28;20125;-64
2023/04/29 15:59:43;;;;;;;9.82;7.50;;;;;;;15.39;48.92;100211.22;10493073;28;20052;-64
2023/04/29 16:04:45;;;;;;;9.40;6.93;;;;;;;15.29;49.53;100213.72;10521380;28;20845;-64
2023/04/29 16:09:47;;;;;;;11.68;8.20;;;;;;;15.32;49.50;100216.13;10521472;28;20054;-64
2023/04/29 16:14:49;;;;;;;11.25;7.95;;;;;;;15.28;49.53;100219.09;10520532;28;20070;-64
2023/04/29 16:19:50;;;;;;;10.60;8.25;;;;;;;15.14;50.19;100211.41;10520652;28;20313;-64
2023/04/29 16:24:53;;;;;;;12.05;9.30;;;;;;;14.84;50.11;100211.00;10520598;28;20083;-64
2023/04/29 16:29:55;;;;;;;12.10;8.55;;;;;;;14.73;51.00;100216.19;10520318;28;20322;-64
2023/04/29 16:34:57;;;;;;;12.43;9.32;;;;;;;14.59;51.22;100219.84;10535575;28;20051;-64
2023/04/29 16:40:02;;;;;;;11.52;9.13;;;;;;;14.48;51.68;100217.09;10519767;28;20557;-63
2023/04/29 16:45:05;;;;;;;14.63;10.23;;;;;;;14.49;52.09;100218.81;10519597;28;20052;-63
2023/04/29 16:50:08;;;;;;;12.02;9.48;;;;;;;14.41;51.61;100219.31;10519573;28;20399;-63
2023/04/29 16:55:11;;;;;;;12.50;9.05;;;;;;;14.43;51.69;100227.94;10534765;28;20048;-64
2023/04/29 17:00:13;;;;;;;11.65;8.02;;;;;;;14.44;51.43;100223.53;10484256;28;20052;-63
2023/04/29 17:05:17;;;;;;;9.93;7.38;;;;;;;14.31;51.16;100236.69;10518980;28;20127;-63
2023/04/29 17:10:19;;;;;;;9.95;6.88;;;;;;;14.06;51.53;100239.38;10519327;28;20349;-63
2023/04/29 17:15:21;;;;;;;9.57;6.78;;;;;;;14.07;51.69;100245.44;10518655;28;20492;-63
2023/04/29 17:20:23;;;;;;;9.50;6.50;;;;;;;13.92;51.02;100246.53;10518380;28;20052;-63
2023/04/29 17:25:25;;;;;;;10.73;7.65;;;;;;;13.86;50.63;100250.38;10518362;28;20051;-63
2023/04/29 17:30:27;;;;;;;11.75;7.25;;;;;;;13.71;51.36;100248.81;10499675;28;20077;-63
2023/04/29 17:35:29;;;;;;;9.55;7.35;;;;;;;13.72;51.84;100255.75;10517910;28;20113;-63
2023/04/29 17:40:30;;;;;;;8.75;6.63;;;;;;;13.78;52.00;100248.28;10517733;28;20143;-63
2023/04/29 17:45:38;;;;;;;9.70;7.70;;;;;;;13.71;51.88;100251.44;10517691;28;20058;-63
2023/04/29 17:50:40;;;;;;;9.13;7.03;;;;;;;13.62;51.76;100252.06;10517562;28;20043;-63
2023/04/29 17:55:45;;;;;;;11.48;7.50;;;;;;;13.57;52.37;100256.78;10517008;28;20044;-63
2023/04/29 18:00:47;;;;;;;12.10;7.13;;;;;;;13.66;52.61;100256.16;10517909;28;20292;-63
2023/04/29 18:05:49;;;;;;;12.40;8.35;;;;;;;13.56;52.26;100262.97;10482282;28;20051;-63
2023/04/29 18:10:51;;;;;;;10.10;7.95;;;;;;;13.67;53.15;100271.00;10517002;28;20657;-63
2023/04/29 18:15:53;;;;;;;9.50;7.50;;;;;;;13.64;53.01;100272.03;10532331;28;20151;-63
2023/04/29 18:20:55;;;;;;;12.30;8.45;;;;;;;13.69;53.26;100275.22;10498413;28;20048;-63
2023/04/29 18:25:57;;;;;;;13.20;7.90;;;;;;;13.72;53.52;100275.00;10524068;28;20075;-63
2023/04/29 18:30:59;;;;;;;10.65;8.00;;;;;;;13.67;53.95;100279.72;10525753;28;20048;-63
2023/04/29 18:36:01;;;;;;;10.15;7.65;;;;;;;13.62;54.45;100283.59;10507231;28;20060;-63
2023/04/29 18:41:03;;;;;;;9.38;6.97;;;;;;;13.55;54.65;100277.06;10524591;28;20052;-63
2023/04/29 18:46:05;;;;;;;11.27;6.45;;;;;;;13.52;54.75;100277.25;10524738;28;20301;-63
2023/04/29 18:51:07;;;;;;;9.65;6.50;;;;;;;13.49;54.83;100280.13;10524659;28;20075;-63
2023/04/29 18:56:09;;;;;;;9.30;6.20;;;;;;;13.48;54.64;100278.41;10523848;28;20079;-63
2023/04/29 19:01:11;;;;;;;7.85;6.22;;;;;;;13.44;54.83;100279.56;10523830;28;20440;-63
2023/04/29 19:06:13;;;;;;;12.25;6.35;;;;;;;13.41;55.28;100298.13;10523730;28;20036;-64
2023/04/29 19:11:15;;;;;;;8.30;5.93;;;;;;;13.26;56.03;100294.72;10523626;28;20089;-63
2023/04/29 19:16:16;;;;;;;9.02;6.40;;;;;;;13.20;56.22;100305.63;10505226;28;20242;-63
2023/04/29 19:21:19;;;;;;;8.20;5.68;;;;;;;13.22;56.38;100306.38;10523199;28;20050;-63
2023/04/29 19:26:21;;;;;;;11.40;7.55;;;;;;;13.19;56.31;100318.84;10523043;28;20079;-63
2023/04/29 19:31:23;;;;;;;10.15;7.15;;;;;;;13.05;56.81;100324.97;10522666;28;20044;-63
2023/04/29 19:36:25;;;;;;;10.32;6.85;;;;;;;12.95;57.23;100337.84;10520997;28;20618;-63
2023/04/29 19:41:27;;;;;;;8.77;6.47;;;;;;;12.95;57.20;100332.59;10522296;28;20135;-63
2023/04/29 19:46:29;;;;;;;10.30;7.18;;;;;;;12.93;57.06;100331.00;10521990;28;20059;-63
2023/04/29 19:51:31;;;;;;;9.27;7.38;;;;;;;12.93;57.36;100344.13;10521873;28;20415;-63
2023/04/29 19:56:33;;;;;;;9.60;6.88;;;;;;;12.80;57.41;100345.84;10521660;28;20044;-63
2023/04/29 20:01:35;;;;;;;8.75;6.55;;;;;;;12.80;58.03;100337.97;10521430;28;20051;-63
2023/04/29 20:06:37;;;;;;;9.90;7.32;;;;;;;12.82;57.91;100334.28;10521640;28;20055;-63
2023/04/29 20:11:39;;;;;;;11.05;7.57;;;;;;;12.77;58.10;100341.63;10521403;28;20068;-63
2023/04/29 20:16:40;;;;;;;10.48;7.85;;;;;;;12.77;57.88;100346.88;10520851;28;20088;-63
2023/04/29 20:21:42;;;;;;;11.95;8.90;;;;;;;12.71;57.78;100342.00;10520783;28;20590;-63
2023/04/29 20:26:44;;;;;;;12.32;9.27;;;;;;;12.72;57.86;100341.06;10502491;28;20143;-63
2023/04/29 20:31:46;;;;;;;11.75;8.52;;;;;;;12.72;57.86;100342.88;10520169;28;20055;-63
2023/04/29 20:36:48;;;;;;;13.13;8.55;;;;;;;12.69;58.32;100349.13;10520245;28;20135;-63
2023/04/29 20:41:50;;;;;;;16.10;10.73;;;;;;;12.50;58.32;100347.72;10520346;28;20135;-63
2023/04/29 20:46:53;;;;;;;14.10;9.65;;;;;;;12.55;58.79;100356.16;10519869;28;20036;-63
2023/04/29 20:51:55;;;;;;;12.48;9.38;;;;;;;12.56;58.86;100353.44;10534959;28;20265;-63
2023/04/29 20:56:56;;;;;;;10.60;8.93;;;;;;;12.50;59.22;100355.59;10519542;28;20573;-63
2023/04/29 21:01:58;;;;;;;9.15;7.45;;;;;;;12.49;59.13;100360.00;10519107;28;20043;-63
2023/04/29 21:07:05;;;;;;;12.93;9.00;;;;;;;12.50;59.48;100356.44;10518897;28;20454;-63
2023/04/29 21:12:07;;;;;;;9.73;8.13;;;;;;;12.39;59.53;100363.28;10518649;28;20289;-63
2023/04/29 21:17:09;;;;;;;12.20;7.90;;;;;;;12.31;60.08;100368.13;10500612;28;20040;-63
2023/04/29 21:22:10;;;;;;;14.43;7.75;;;;;;;12.18;59.86;100365.38;10518531;28;20566;-63
2023/04/29 21:27:12;;;;;;;11.23;8.10;;;;;;;12.01;60.52;100363.75;10518633;28;20088;-63
2023/04/29 21:32:20;;;;;;;10.80;7.50;;;;;;;11.95;60.79;100369.34;10517935;28;20044;-63
2023/04/29 21:37:22;;;;;;;12.60;8.40;;;;;;;11.87;60.61;100371.56;10517671;28;20147;-63
2023/04/29 21:42:25;;;;;;;12.77;8.70;;;;;;;11.81;60.73;100379.78;10517759;28;20048;-63
2023/04/29 21:47:28;;;;;;;13.07;8.57;;;;;;;11.79;61.05;100375.56;10517905;28;20043;-63
2023/04/29 21:52:33;;;;;;;11.52;8.90;;;;;;;11.74;61.36;100382.84;10517366;28;20550;-63
2023/04/29 21:57:36;;;;;;;11.93;8.93;;;;;;;11.71;61.25;100385.63;10516435;28;20555;-63
2023/04/29 22:02:45;;;;;;;13.20;9.03;;;;;;;11.70;61.50;100383.97;10517106;28;20047;-63
2023/04/29 22:07:47;;;;;;;15.25;8.50;;;;;;;11.70;61.56;100379.53;10499073;28;20830;-63
2023/04/29 22:12:49;;;;;;;12.38;8.52;;;;;;;11.60;61.63;100382.81;10516648;28;20054;-63
2023/04/29 22:17:51;;;;;;;13.45;8.57;;;;;;;11.60;61.75;100381.00;10517032;28;20059;-63
2023/04/29 22:22:53;;;;;;;10.82;8.75;;;;;;;11.58;62.06;100392.53;10517028;28;20044;-63
2023/04/29 22:27:55;;;;;;;12.77;9.48;;;;;;;11.52;61.97;100392.88;10498490;28;20052;-63
2023/04/29 22:32:57;;;;;;;13.18;9.00;;;;;;;11.51;61.87;100401.63;10498453;28;20048;-63
2023/04/29 22:37:59;;;;;;;12.88;9.80;;;;;;;11.50;62.14;100406.03;10516652;28;20336;-63
2023/04/29 22:43:01;;;;;;;11.02;8.65;;;;;;;11.50;62.08;100407.81;10516548;28;20070;-63
2023/04/29 22:48:03;;;;;;;15.63;9.73;;;;;;;11.52;61.91;100408.59;10515936;28;20043;-63
2023/04/29 22:53:05;;;;;;;14.02;9.75;;;;;;;11.56;61.95;100413.53;10516822;28;20048;-63
2023/04/29 22:58:07;;;;;;;14.40;9.88;;;;;;;11.51;62.56;100412.13;10515977;28;20052;-63
2023/04/29 23:03:09;;;;;;;14.60;10.40;;;;;;;11.45;62.22;100410.69;10515757;28;20334;-63
2023/04/29 23:08:11;;;;;;;12.77;10.75;;;;;;;11.46;62.25;100419.41;10516803;28;20140;-63
2023/04/29 23:13:13;;;;;;;13.52;10.20;;;;;;;11.41;62.38;100417.03;10523665;28;20063;-63